sensor_id;sensor_type;location;lat;lon;timestamp;P1;durP1;ratioP1;P2;durP2;ratioP2
4595;SDS011;2310;49.978;8.742;2024-03-08T00:01:58;26.53;;;18.93;;
4595;SDS011;2310;49.978;8.742;2024-03-08T00:06:00;25.97;;;17.90;;
4595;SDS011;2310;49.978;8.742;2024-03-08T00:10:03;23.93;;;17.87;;
4595;SDS011;2310;49.978;8.742;2024-03-08T00:14:05;25.87;;;20.50;;
4595;SDS011;2310;49.978;8.742;2024-03-08T00:18:07;26.07;;;20.30;;
4595;SDS011;2310;49.978;8.742;2024-03-08T00:22:10;30.33;;;18.97;;
4595;SDS011;2310;49.978;8.742;2024-03-08T00:26:12;21.77;;;17.37;;
4595;SDS011;2310;49.978;8.742;2024-03-08T00:30:14;26.70;;;18.70;;
4595;SDS011;2310;49.978;8.742;2024-03-08T00:34:15;25.60;;;20.03;;
4595;SDS011;2310;49.978;8.742;2024-03-08T00:38:17;23.50;;;18.03;;
4595;SDS011;2310;49.978;8.742;2024-03-08T00:42:20;21.83;;;17.63;;
4595;SDS011;2310;49.978;8.742;2024-03-08T00:46:21;25.97;;;17.20;;
4595;SDS011;2310;49.978;8.742;2024-03-08T00:50:23;25.33;;;17.30;;
4595;SDS011;2310;49.978;8.742;2024-03-08T00:54:24;24.60;;;17.17;;
4595;SDS011;2310;49.978;8.742;2024-03-08T00:58:25;26.53;;;19.87;;
4595;SDS011;2310;49.978;8.742;2024-03-08T01:02:27;26.63;;;18.93;;
4595;SDS011;2310;49.978;8.742;2024-03-08T01:06:29;25.60;;;18.10;;
4595;SDS011;2310;49.978;8.742;2024-03-08T01:10:30;28.13;;;19.13;;
4595;SDS011;2310;49.978;8.742;2024-03-08T01:14:31;23.77;;;17.47;;
4595;SDS011;2310;49.978;8.742;2024-03-08T01:18:34;30.80;;;19.03;;
4595;SDS011;2310;49.978;8.742;2024-03-08T01:22:36;24.67;;;16.53;;
4595;SDS011;2310;49.978;8.742;2024-03-08T01:26:37;28.97;;;19.20;;
4595;SDS011;2310;49.978;8.742;2024-03-08T01:30:39;27.77;;;18.17;;
4595;SDS011;2310;49.978;8.742;2024-03-08T01:34:43;25.60;;;16.23;;
4595;SDS011;2310;49.978;8.742;2024-03-08T01:38:46;25.17;;;18.50;;
4595;SDS011;2310;49.978;8.742;2024-03-08T01:42:47;24.27;;;17.20;;
4595;SDS011;2310;49.978;8.742;2024-03-08T01:46:49;30.77;;;18.93;;
4595;SDS011;2310;49.978;8.742;2024-03-08T01:50:53;25.60;;;16.50;;
4595;SDS011;2310;49.978;8.742;2024-03-08T01:54:55;25.13;;;16.53;;
4595;SDS011;2310;49.978;8.742;2024-03-08T01:58:57;29.30;;;18.80;;
4595;SDS011;2310;49.978;8.742;2024-03-08T02:03:01;23.10;;;16.20;;
4595;SDS011;2310;49.978;8.742;2024-03-08T02:07:04;30.20;;;16.83;;
4595;SDS011;2310;49.978;8.742;2024-03-08T02:11:07;24.80;;;18.07;;
4595;SDS011;2310;49.978;8.742;2024-03-08T02:15:08;23.73;;;17.60;;
4595;SDS011;2310;49.978;8.742;2024-03-08T02:19:10;23.67;;;15.90;;
4595;SDS011;2310;49.978;8.742;2024-03-08T02:23:11;25.10;;;17.90;;
4595;SDS011;2310;49.978;8.742;2024-03-08T02:27:15;27.23;;;18.50;;
4595;SDS011;2310;49.978;8.742;2024-03-08T02:31:18;25.73;;;18.00;;
4595;SDS011;2310;49.978;8.742;2024-03-08T02:35:19;24.20;;;16.37;;
4595;SDS011;2310;49.978;8.742;2024-03-08T02:39:21;29.07;;;19.63;;
4595;SDS011;2310;49.978;8.742;2024-03-08T02:43:28;29.47;;;18.57;;
4595;SDS011;2310;49.978;8.742;2024-03-08T02:47:30;25.27;;;17.77;;
4595;SDS011;2310;49.978;8.742;2024-03-08T02:51:32;26.80;;;18.70;;
4595;SDS011;2310;49.978;8.742;2024-03-08T02:55:35;24.10;;;16.77;;
4595;SDS011;2310;49.978;8.742;2024-03-08T02:59:37;27.60;;;16.83;;
4595;SDS011;2310;49.978;8.742;2024-03-08T03:03:40;26.33;;;17.90;;
4595;SDS011;2310;49.978;8.742;2024-03-08T03:07:43;24.33;;;17.27;;
4595;SDS011;2310;49.978;8.742;2024-03-08T03:11:45;27.37;;;17.70;;
4595;SDS011;2310;49.978;8.742;2024-03-08T03:15:46;28.20;;;20.13;;
4595;SDS011;2310;49.978;8.742;2024-03-08T03:19:48;28.40;;;19.30;;
4595;SDS011;2310;49.978;8.742;2024-03-08T03:23:49;26.63;;;18.00;;
4595;SDS011;2310;49.978;8.742;2024-03-08T03:27:51;28.43;;;18.63;;
4595;SDS011;2310;49.978;8.742;2024-03-08T03:31:56;31.97;;;20.37;;
4595;SDS011;2310;49.978;8.742;2024-03-08T03:35:58;34.93;;;19.63;;
4595;SDS011;2310;49.978;8.742;2024-03-08T03:40:00;31.30;;;20.47;;
4595;SDS011;2310;49.978;8.742;2024-03-08T03:44:02;26.73;;;19.43;;
4595;SDS011;2310;49.978;8.742;2024-03-08T03:48:05;31.87;;;21.63;;
4595;SDS011;2310;49.978;8.742;2024-03-08T03:52:13;29.50;;;20.83;;
4595;SDS011;2310;49.978;8.742;2024-03-08T03:56:16;31.40;;;21.47;;
4595;SDS011;2310;49.978;8.742;2024-03-08T04:00:18;27.33;;;18.77;;
4595;SDS011;2310;49.978;8.742;2024-03-08T04:04:19;28.13;;;21.00;;
4595;SDS011;2310;49.978;8.742;2024-03-08T04:08:21;29.00;;;19.00;;
4595;SDS011;2310;49.978;8.742;2024-03-08T04:12:24;27.60;;;20.47;;
4595;SDS011;2310;49.978;8.742;2024-03-08T04:16:26;29.20;;;20.67;;
4595;SDS011;2310;49.978;8.742;2024-03-08T04:20:27;27.50;;;19.53;;
4595;SDS011;2310;49.978;8.742;2024-03-08T04:24:29;28.87;;;21.53;;
4595;SDS011;2310;49.978;8.742;2024-03-08T04:28:31;29.03;;;22.33;;
4595;SDS011;2310;49.978;8.742;2024-03-08T04:32:33;27.27;;;19.37;;
4595;SDS011;2310;49.978;8.742;2024-03-08T04:36:35;27.70;;;19.13;;
4595;SDS011;2310;49.978;8.742;2024-03-08T04:40:42;32.50;;;20.47;;
4595;SDS011;2310;49.978;8.742;2024-03-08T04:44:44;29.10;;;17.63;;
4595;SDS011;2310;49.978;8.742;2024-03-08T04:48:45;27.47;;;19.57;;
4595;SDS011;2310;49.978;8.742;2024-03-08T04:52:47;32.57;;;18.77;;
4595;SDS011;2310;49.978;8.742;2024-03-08T04:56:49;28.17;;;19.27;;
4595;SDS011;2310;49.978;8.742;2024-03-08T05:00:51;32.13;;;21.00;;
4595;SDS011;2310;49.978;8.742;2024-03-08T05:04:52;32.30;;;20.10;;
4595;SDS011;2310;49.978;8.742;2024-03-08T05:08:54;32.70;;;21.13;;
4595;SDS011;2310;49.978;8.742;2024-03-08T05:12:55;31.10;;;21.13;;
4595;SDS011;2310;49.978;8.742;2024-03-08T05:16:58;32.00;;;20.43;;
4595;SDS011;2310;49.978;8.742;2024-03-08T05:21:01;27.47;;;18.93;;
4595;SDS011;2310;49.978;8.742;2024-03-08T05:25:05;30.70;;;20.87;;
4595;SDS011;2310;49.978;8.742;2024-03-08T05:29:09;30.63;;;20.53;;
4595;SDS011;2310;49.978;8.742;2024-03-08T05:33:10;35.40;;;22.60;;
4595;SDS011;2310;49.978;8.742;2024-03-08T05:37:12;32.63;;;20.73;;
4595;SDS011;2310;49.978;8.742;2024-03-08T05:41:13;32.10;;;19.20;;
4595;SDS011;2310;49.978;8.742;2024-03-08T05:45:15;34.00;;;21.50;;
4595;SDS011;2310;49.978;8.742;2024-03-08T05:49:17;34.70;;;21.80;;
4595;SDS011;2310;49.978;8.742;2024-03-08T05:53:19;34.10;;;21.70;;
4595;SDS011;2310;49.978;8.742;2024-03-08T05:57:20;34.77;;;22.80;;
4595;SDS011;2310;49.978;8.742;2024-03-08T06:01:28;30.47;;;20.57;;
4595;SDS011;2310;49.978;8.742;2024-03-08T06:05:28;32.60;;;21.13;;
4595;SDS011;2310;49.978;8.742;2024-03-08T06:09:29;34.27;;;22.60;;
4595;SDS011;2310;49.978;8.742;2024-03-08T06:13:31;34.40;;;22.43;;
4595;SDS011;2310;49.978;8.742;2024-03-08T06:17:35;33.60;;;21.17;;
4595;SDS011;2310;49.978;8.742;2024-03-08T06:21:37;31.23;;;22.23;;
4595;SDS011;2310;49.978;8.742;2024-03-08T06:25:38;35.23;;;19.93;;
4595;SDS011;2310;49.978;8.742;2024-03-08T06:29:40;33.13;;;21.90;;
4595;SDS011;2310;49.978;8.742;2024-03-08T06:33:41;34.13;;;21.30;;
4595;SDS011;2310;49.978;8.742;2024-03-08T06:37:43;34.73;;;21.90;;
4595;SDS011;2310;49.978;8.742;2024-03-08T06:41:45;33.87;;;21.93;;
4595;SDS011;2310;49.978;8.742;2024-03-08T06:45:47;34.17;;;21.57;;
4595;SDS011;2310;49.978;8.742;2024-03-08T06:49:51;31.33;;;22.70;;
4595;SDS011;2310;49.978;8.742;2024-03-08T06:53:53;30.27;;;21.23;;
4595;SDS011;2310;49.978;8.742;2024-03-08T06:57:54;36.00;;;22.13;;
4595;SDS011;2310;49.978;8.742;2024-03-08T07:01:56;30.20;;;21.03;;
4595;SDS011;2310;49.978;8.742;2024-03-08T07:05:57;30.97;;;21.13;;
4595;SDS011;2310;49.978;8.742;2024-03-08T07:09:59;30.73;;;23.03;;
4595;SDS011;2310;49.978;8.742;2024-03-08T07:14:00;34.70;;;22.07;;
4595;SDS011;2310;49.978;8.742;2024-03-08T07:18:04;37.67;;;22.43;;
4595;SDS011;2310;49.978;8.742;2024-03-08T07:22:05;35.07;;;21.93;;
4595;SDS011;2310;49.978;8.742;2024-03-08T07:26:09;35.03;;;23.73;;
4595;SDS011;2310;49.978;8.742;2024-03-08T07:30:11;32.83;;;22.07;;
4595;SDS011;2310;49.978;8.742;2024-03-08T07:34:13;31.80;;;22.27;;
4595;SDS011;2310;49.978;8.742;2024-03-08T07:38:14;32.00;;;21.57;;
4595;SDS011;2310;49.978;8.742;2024-03-08T07:42:17;35.03;;;24.30;;
4595;SDS011;2310;49.978;8.742;2024-03-08T07:46:22;29.87;;;22.70;;
4595;SDS011;2310;49.978;8.742;2024-03-08T07:50:24;31.00;;;20.30;;
4595;SDS011;2310;49.978;8.742;2024-03-08T07:54:25;30.20;;;20.73;;
4595;SDS011;2310;49.978;8.742;2024-03-08T07:58:27;31.37;;;22.33;;
4595;SDS011;2310;49.978;8.742;2024-03-08T08:02:29;32.33;;;22.57;;
4595;SDS011;2310;49.978;8.742;2024-03-08T08:06:33;30.87;;;22.50;;
4595;SDS011;2310;49.978;8.742;2024-03-08T08:10:36;30.53;;;20.97;;
4595;SDS011;2310;49.978;8.742;2024-03-08T08:14:38;34.70;;;22.20;;
4595;SDS011;2310;49.978;8.742;2024-03-08T08:18:40;30.43;;;21.33;;
4595;SDS011;2310;49.978;8.742;2024-03-08T08:22:42;28.73;;;21.03;;
4595;SDS011;2310;49.978;8.742;2024-03-08T08:26:46;31.17;;;21.67;;
4595;SDS011;2310;49.978;8.742;2024-03-08T08:30:47;26.30;;;21.57;;
4595;SDS011;2310;49.978;8.742;2024-03-08T08:34:49;26.83;;;21.53;;
4595;SDS011;2310;49.978;8.742;2024-03-08T08:38:51;26.43;;;19.47;;
4595;SDS011;2310;49.978;8.742;2024-03-08T08:42:54;27.90;;;20.17;;
4595;SDS011;2310;49.978;8.742;2024-03-08T08:46:57;25.80;;;19.60;;
4595;SDS011;2310;49.978;8.742;2024-03-08T08:51:01;26.90;;;20.30;;
4595;SDS011;2310;49.978;8.742;2024-03-08T08:55:02;25.60;;;20.90;;
4595;SDS011;2310;49.978;8.742;2024-03-08T08:59:05;26.20;;;20.53;;
4595;SDS011;2310;49.978;8.742;2024-03-08T09:03:06;24.80;;;19.37;;
4595;SDS011;2310;49.978;8.742;2024-03-08T09:07:08;25.93;;;19.57;;
4595;SDS011;2310;49.978;8.742;2024-03-08T09:11:09;21.50;;;17.20;;
4595;SDS011;2310;49.978;8.742;2024-03-08T09:15:12;24.00;;;18.70;;
4595;SDS011;2310;49.978;8.742;2024-03-08T09:19:14;23.20;;;16.83;;
4595;SDS011;2310;49.978;8.742;2024-03-08T09:23:16;23.47;;;17.93;;
4595;SDS011;2310;49.978;8.742;2024-03-08T09:27:18;23.50;;;17.67;;
4595;SDS011;2310;49.978;8.742;2024-03-08T09:31:19;23.77;;;19.27;;
4595;SDS011;2310;49.978;8.742;2024-03-08T09:35:27;21.67;;;15.70;;
4595;SDS011;2310;49.978;8.742;2024-03-08T09:39:28;19.87;;;15.33;;
4595;SDS011;2310;49.978;8.742;2024-03-08T09:43:36;22.00;;;18.27;;
4595;SDS011;2310;49.978;8.742;2024-03-08T09:47:40;21.70;;;16.30;;
4595;SDS011;2310;49.978;8.742;2024-03-08T09:51:43;24.33;;;19.60;;
4595;SDS011;2310;49.978;8.742;2024-03-08T09:55:44;20.93;;;17.60;;
4595;SDS011;2310;49.978;8.742;2024-03-08T09:59:46;22.00;;;17.30;;
4595;SDS011;2310;49.978;8.742;2024-03-08T10:03:49;25.53;;;19.00;;
4595;SDS011;2310;49.978;8.742;2024-03-08T10:07:51;24.93;;;20.10;;
4595;SDS011;2310;49.978;8.742;2024-03-08T10:11:57;24.60;;;18.20;;
4595;SDS011;2310;49.978;8.742;2024-03-08T10:16:01;25.17;;;18.10;;
4595;SDS011;2310;49.978;8.742;2024-03-08T10:20:03;24.23;;;16.80;;
4595;SDS011;2310;49.978;8.742;2024-03-08T10:24:07;26.10;;;19.17;;
4595;SDS011;2310;49.978;8.742;2024-03-08T10:28:11;22.70;;;18.17;;
4595;SDS011;2310;49.978;8.742;2024-03-08T10:32:13;27.60;;;20.47;;
4595;SDS011;2310;49.978;8.742;2024-03-08T10:36:15;23.80;;;17.67;;
4595;SDS011;2310;49.978;8.742;2024-03-08T10:40:17;20.80;;;15.67;;
4595;SDS011;2310;49.978;8.742;2024-03-08T10:44:31;25.33;;;18.07;;
4595;SDS011;2310;49.978;8.742;2024-03-08T10:48:31;23.30;;;16.53;;
4595;SDS011;2310;49.978;8.742;2024-03-08T10:52:35;25.87;;;17.40;;
4595;SDS011;2310;49.978;8.742;2024-03-08T10:56:38;22.07;;;17.93;;
4595;SDS011;2310;49.978;8.742;2024-03-08T11:00:41;23.70;;;18.83;;
4595;SDS011;2310;49.978;8.742;2024-03-08T11:04:48;22.67;;;18.00;;
4595;SDS011;2310;49.978;8.742;2024-03-08T11:08:51;21.93;;;18.17;;
4595;SDS011;2310;49.978;8.742;2024-03-08T11:12:55;25.00;;;18.30;;
4595;SDS011;2310;49.978;8.742;2024-03-08T11:16:56;20.00;;;16.80;;
4595;SDS011;2310;49.978;8.742;2024-03-08T11:20:58;20.87;;;15.90;;
4595;SDS011;2310;49.978;8.742;2024-03-08T11:25:08;28.70;;;19.00;;
4595;SDS011;2310;49.978;8.742;2024-03-08T11:29:32;19.07;;;15.33;;
4595;SDS011;2310;49.978;8.742;2024-03-08T11:33:31;25.73;;;18.60;;
4595;SDS011;2310;49.978;8.742;2024-03-08T11:37:40;23.63;;;16.67;;
4595;SDS011;2310;49.978;8.742;2024-03-08T11:41:42;21.57;;;17.90;;
4595;SDS011;2310;49.978;8.742;2024-03-08T11:45:47;19.80;;;15.43;;
4595;SDS011;2310;49.978;8.742;2024-03-08T11:49:48;20.90;;;16.33;;
4595;SDS011;2310;49.978;8.742;2024-03-08T11:53:50;20.63;;;16.30;;
4595;SDS011;2310;49.978;8.742;2024-03-08T11:57:59;24.23;;;19.23;;
4595;SDS011;2310;49.978;8.742;2024-03-08T12:01:58;19.13;;;16.03;;
4595;SDS011;2310;49.978;8.742;2024-03-08T12:06:04;25.60;;;18.67;;
4595;SDS011;2310;49.978;8.742;2024-03-08T12:10:16;20.10;;;16.80;;
4595;SDS011;2310;49.978;8.742;2024-03-08T12:14:20;23.73;;;18.73;;
4595;SDS011;2310;49.978;8.742;2024-03-08T12:18:24;23.67;;;18.50;;
4595;SDS011;2310;49.978;8.742;2024-03-08T12:22:27;25.13;;;18.70;;
4595;SDS011;2310;49.978;8.742;2024-03-08T12:26:28;22.17;;;18.83;;
4595;SDS011;2310;49.978;8.742;2024-03-08T12:30:31;25.37;;;19.07;;
4595;SDS011;2310;49.978;8.742;2024-03-08T12:34:34;22.60;;;17.83;;
4595;SDS011;2310;49.978;8.742;2024-03-08T12:38:36;20.80;;;16.77;;
4595;SDS011;2310;49.978;8.742;2024-03-08T12:42:38;21.67;;;16.70;;
4595;SDS011;2310;49.978;8.742;2024-03-08T12:46:40;21.30;;;16.90;;
4595;SDS011;2310;49.978;8.742;2024-03-08T12:50:41;21.97;;;17.90;;
4595;SDS011;2310;49.978;8.742;2024-03-08T12:54:44;20.20;;;16.80;;
4595;SDS011;2310;49.978;8.742;2024-03-08T12:58:46;21.70;;;17.30;;
4595;SDS011;2310;49.978;8.742;2024-03-08T13:02:47;22.00;;;17.50;;
4595;SDS011;2310;49.978;8.742;2024-03-08T13:06:49;20.17;;;16.83;;
4595;SDS011;2310;49.978;8.742;2024-03-08T13:10:53;19.20;;;16.07;;
4595;SDS011;2310;49.978;8.742;2024-03-08T13:14:55;21.80;;;17.47;;
4595;SDS011;2310;49.978;8.742;2024-03-08T13:18:57;23.60;;;16.73;;
4595;SDS011;2310;49.978;8.742;2024-03-08T13:22:58;24.33;;;18.77;;
4595;SDS011;2310;49.978;8.742;2024-03-08T13:27:02;23.53;;;18.03;;
4595;SDS011;2310;49.978;8.742;2024-03-08T13:31:04;19.83;;;15.20;;
4595;SDS011;2310;49.978;8.742;2024-03-08T13:35:07;24.83;;;17.30;;
4595;SDS011;2310;49.978;8.742;2024-03-08T13:39:10;20.63;;;17.40;;
4595;SDS011;2310;49.978;8.742;2024-03-08T13:43:14;26.20;;;19.87;;
4595;SDS011;2310;49.978;8.742;2024-03-08T13:47:15;24.10;;;18.50;;
4595;SDS011;2310;49.978;8.742;2024-03-08T13:51:18;22.10;;;18.00;;
4595;SDS011;2310;49.978;8.742;2024-03-08T13:55:21;23.17;;;16.70;;
4595;SDS011;2310;49.978;8.742;2024-03-08T13:59:29;21.97;;;17.03;;
4595;SDS011;2310;49.978;8.742;2024-03-08T14:03:31;21.77;;;16.60;;
4595;SDS011;2310;49.978;8.742;2024-03-08T14:07:33;21.23;;;16.30;;
4595;SDS011;2310;49.978;8.742;2024-03-08T14:11:35;21.63;;;17.00;;
4595;SDS011;2310;49.978;8.742;2024-03-08T14:15:36;21.77;;;16.70;;
4595;SDS011;2310;49.978;8.742;2024-03-08T14:19:39;28.00;;;19.93;;
4595;SDS011;2310;49.978;8.742;2024-03-08T14:23:41;26.40;;;18.80;;
4595;SDS011;2310;49.978;8.742;2024-03-08T14:27:44;23.10;;;17.60;;
4595;SDS011;2310;49.978;8.742;2024-03-08T14:31:46;20.97;;;16.93;;
4595;SDS011;2310;49.978;8.742;2024-03-08T14:35:47;23.07;;;17.83;;
4595;SDS011;2310;49.978;8.742;2024-03-08T14:39:50;24.27;;;19.27;;
4595;SDS011;2310;49.978;8.742;2024-03-08T14:43:53;22.60;;;17.50;;
4595;SDS011;2310;49.978;8.742;2024-03-08T14:47:54;22.10;;;16.77;;
4595;SDS011;2310;49.978;8.742;2024-03-08T14:51:56;24.87;;;16.00;;
4595;SDS011;2310;49.978;8.742;2024-03-08T14:55:59;22.30;;;17.43;;
4595;SDS011;2310;49.978;8.742;2024-03-08T15:00:00;21.43;;;17.77;;
4595;SDS011;2310;49.978;8.742;2024-03-08T15:04:07;21.87;;;15.07;;
4595;SDS011;2310;49.978;8.742;2024-03-08T15:08:11;20.73;;;15.63;;
4595;SDS011;2310;49.978;8.742;2024-03-08T15:12:14;21.77;;;16.03;;
4595;SDS011;2310;49.978;8.742;2024-03-08T15:16:16;18.83;;;14.33;;
4595;SDS011;2310;49.978;8.742;2024-03-08T15:20:19;18.90;;;14.03;;
4595;SDS011;2310;49.978;8.742;2024-03-08T15:24:30;20.37;;;14.30;;
4595;SDS011;2310;49.978;8.742;2024-03-08T15:28:33;22.70;;;15.77;;
4595;SDS011;2310;49.978;8.742;2024-03-08T15:32:44;23.33;;;15.33;;
4595;SDS011;2310;49.978;8.742;2024-03-08T15:36:47;19.50;;;15.20;;
4595;SDS011;2310;49.978;8.742;2024-03-08T15:40:50;22.43;;;15.37;;
4595;SDS011;2310;49.978;8.742;2024-03-08T15:44:52;19.07;;;14.23;;
4595;SDS011;2310;49.978;8.742;2024-03-08T15:48:55;14.50;;;12.10;;
4595;SDS011;2310;49.978;8.742;2024-03-08T15:52:58;18.73;;;13.97;;
4595;SDS011;2310;49.978;8.742;2024-03-08T15:57:00;16.70;;;13.10;;
4595;SDS011;2310;49.978;8.742;2024-03-08T16:01:04;18.37;;;13.60;;
4595;SDS011;2310;49.978;8.742;2024-03-08T16:05:09;18.30;;;14.60;;
4595;SDS011;2310;49.978;8.742;2024-03-08T16:09:12;16.33;;;13.80;;
4595;SDS011;2310;49.978;8.742;2024-03-08T16:13:16;19.47;;;13.63;;
4595;SDS011;2310;49.978;8.742;2024-03-08T16:17:18;18.43;;;13.87;;
4595;SDS011;2310;49.978;8.742;2024-03-08T16:21:20;18.27;;;13.77;;
4595;SDS011;2310;49.978;8.742;2024-03-08T16:25:21;17.17;;;12.07;;
4595;SDS011;2310;49.978;8.742;2024-03-08T16:29:23;17.37;;;12.57;;
4595;SDS011;2310;49.978;8.742;2024-03-08T16:33:25;14.33;;;11.17;;
4595;SDS011;2310;49.978;8.742;2024-03-08T16:37:26;17.90;;;14.20;;
4595;SDS011;2310;49.978;8.742;2024-03-08T16:41:30;17.37;;;11.47;;
4595;SDS011;2310;49.978;8.742;2024-03-08T16:45:33;18.10;;;13.00;;
4595;SDS011;2310;49.978;8.742;2024-03-08T16:49:35;16.10;;;10.33;;
4595;SDS011;2310;49.978;8.742;2024-03-08T16:53:37;14.57;;;10.43;;
4595;SDS011;2310;49.978;8.742;2024-03-08T16:57:44;13.83;;;10.20;;
4595;SDS011;2310;49.978;8.742;2024-03-08T17:01:46;15.57;;;10.97;;
4595;SDS011;2310;49.978;8.742;2024-03-08T17:05:49;17.00;;;11.60;;
4595;SDS011;2310;49.978;8.742;2024-03-08T17:09:55;16.23;;;11.57;;
4595;SDS011;2310;49.978;8.742;2024-03-08T17:13:58;17.23;;;13.37;;
4595;SDS011;2310;49.978;8.742;2024-03-08T17:18:00;17.80;;;11.10;;
4595;SDS011;2310;49.978;8.742;2024-03-08T17:22:09;16.97;;;12.20;;
4595;SDS011;2310;49.978;8.742;2024-03-08T17:26:12;18.17;;;14.53;;
4595;SDS011;2310;49.978;8.742;2024-03-08T17:30:13;19.90;;;15.90;;
4595;SDS011;2310;49.978;8.742;2024-03-08T17:34:22;17.27;;;12.10;;
4595;SDS011;2310;49.978;8.742;2024-03-08T17:38:24;14.30;;;11.23;;
4595;SDS011;2310;49.978;8.742;2024-03-08T17:42:25;13.37;;;10.47;;
4595;SDS011;2310;49.978;8.742;2024-03-08T17:46:28;14.03;;;9.70;;
4595;SDS011;2310;49.978;8.742;2024-03-08T17:50:30;15.47;;;12.00;;
4595;SDS011;2310;49.978;8.742;2024-03-08T17:54:31;12.80;;;9.77;;
4595;SDS011;2310;49.978;8.742;2024-03-08T17:58:33;15.80;;;10.97;;
4595;SDS011;2310;49.978;8.742;2024-03-08T18:02:35;15.47;;;10.67;;
4595;SDS011;2310;49.978;8.742;2024-03-08T18:06:36;12.77;;;9.50;;
4595;SDS011;2310;49.978;8.742;2024-03-08T18:10:37;16.93;;;11.53;;
4595;SDS011;2310;49.978;8.742;2024-03-08T18:14:39;14.53;;;10.73;;
4595;SDS011;2310;49.978;8.742;2024-03-08T18:18:41;15.63;;;12.00;;
4595;SDS011;2310;49.978;8.742;2024-03-08T18:22:43;15.53;;;11.80;;
4595;SDS011;2310;49.978;8.742;2024-03-08T18:26:45;17.80;;;10.73;;
4595;SDS011;2310;49.978;8.742;2024-03-08T18:30:46;14.80;;;11.57;;
4595;SDS011;2310;49.978;8.742;2024-03-08T18:34:49;18.43;;;11.33;;
4595;SDS011;2310;49.978;8.742;2024-03-08T18:38:51;19.53;;;12.13;;
4595;SDS011;2310;49.978;8.742;2024-03-08T18:42:53;17.00;;;11.23;;
4595;SDS011;2310;49.978;8.742;2024-03-08T18:46:55;17.33;;;12.70;;
4595;SDS011;2310;49.978;8.742;2024-03-08T18:50:59;15.20;;;11.20;;
4595;SDS011;2310;49.978;8.742;2024-03-08T18:55:00;19.73;;;11.40;;
4595;SDS011;2310;49.978;8.742;2024-03-08T18:59:01;18.20;;;12.40;;
4595;SDS011;2310;49.978;8.742;2024-03-08T19:03:04;20.57;;;14.13;;
4595;SDS011;2310;49.978;8.742;2024-03-08T19:07:08;19.83;;;13.63;;
4595;SDS011;2310;49.978;8.742;2024-03-08T19:11:13;20.27;;;14.33;;
4595;SDS011;2310;49.978;8.742;2024-03-08T19:15:15;19.77;;;13.70;;
4595;SDS011;2310;49.978;8.742;2024-03-08T19:19:20;18.13;;;12.97;;
4595;SDS011;2310;49.978;8.742;2024-03-08T19:23:23;18.10;;;11.90;;
4595;SDS011;2310;49.978;8.742;2024-03-08T19:27:25;16.10;;;12.10;;
4595;SDS011;2310;49.978;8.742;2024-03-08T19:31:26;18.63;;;12.23;;
4595;SDS011;2310;49.978;8.742;2024-03-08T19:35:28;19.30;;;13.23;;
4595;SDS011;2310;49.978;8.742;2024-03-08T19:39:30;27.90;;;19.17;;
4595;SDS011;2310;49.978;8.742;2024-03-08T19:43:32;24.90;;;16.60;;
4595;SDS011;2310;49.978;8.742;2024-03-08T19:47:33;38.30;;;26.60;;
4595;SDS011;2310;49.978;8.742;2024-03-08T19:51:35;26.97;;;22.43;;
4595;SDS011;2310;49.978;8.742;2024-03-08T19:55:37;20.73;;;15.50;;
4595;SDS011;2310;49.978;8.742;2024-03-08T19:59:40;18.10;;;14.67;;
4595;SDS011;2310;49.978;8.742;2024-03-08T20:03:46;27.13;;;15.30;;
4595;SDS011;2310;49.978;8.742;2024-03-08T20:07:47;18.27;;;14.17;;
4595;SDS011;2310;49.978;8.742;2024-03-08T20:11:53;17.70;;;13.10;;
4595;SDS011;2310;49.978;8.742;2024-03-08T20:15:56;16.20;;;12.17;;
4595;SDS011;2310;49.978;8.742;2024-03-08T20:19:58;18.60;;;12.63;;
4595;SDS011;2310;49.978;8.742;2024-03-08T20:24:02;16.50;;;11.23;;
4595;SDS011;2310;49.978;8.742;2024-03-08T20:28:03;19.07;;;13.03;;
4595;SDS011;2310;49.978;8.742;2024-03-08T20:32:06;17.23;;;12.33;;
4595;SDS011;2310;49.978;8.742;2024-03-08T20:36:09;16.83;;;11.87;;
4595;SDS011;2310;49.978;8.742;2024-03-08T20:40:11;16.33;;;12.23;;
4595;SDS011;2310;49.978;8.742;2024-03-08T20:44:13;20.10;;;14.57;;
4595;SDS011;2310;49.978;8.742;2024-03-08T20:48:16;21.37;;;14.53;;
4595;SDS011;2310;49.978;8.742;2024-03-08T20:52:17;23.30;;;14.50;;
4595;SDS011;2310;49.978;8.742;2024-03-08T20:56:20;19.63;;;14.20;;
4595;SDS011;2310;49.978;8.742;2024-03-08T21:00:22;20.57;;;15.80;;
4595;SDS011;2310;49.978;8.742;2024-03-08T21:04:35;18.77;;;14.67;;
4595;SDS011;2310;49.978;8.742;2024-03-08T21:08:36;16.90;;;14.13;;
4595;SDS011;2310;49.978;8.742;2024-03-08T21:12:39;17.77;;;13.53;;
4595;SDS011;2310;49.978;8.742;2024-03-08T21:16:42;20.73;;;14.53;;
4595;SDS011;2310;49.978;8.742;2024-03-08T21:20:43;21.50;;;13.17;;
4595;SDS011;2310;49.978;8.742;2024-03-08T21:24:45;18.40;;;14.13;;
4595;SDS011;2310;49.978;8.742;2024-03-08T21:28:46;19.70;;;13.90;;
4595;SDS011;2310;49.978;8.742;2024-03-08T21:32:50;19.90;;;13.77;;
4595;SDS011;2310;49.978;8.742;2024-03-08T21:36:51;22.53;;;14.80;;
4595;SDS011;2310;49.978;8.742;2024-03-08T21:40:53;18.70;;;14.33;;
4595;SDS011;2310;49.978;8.742;2024-03-08T21:44:56;21.20;;;14.97;;
4595;SDS011;2310;49.978;8.742;2024-03-08T21:49:05;18.30;;;13.30;;
4595;SDS011;2310;49.978;8.742;2024-03-08T21:53:07;24.60;;;15.67;;
4595;SDS011;2310;49.978;8.742;2024-03-08T21:57:10;21.23;;;13.60;;
4595;SDS011;2310;49.978;8.742;2024-03-08T22:01:12;20.63;;;15.40;;
4595;SDS011;2310;49.978;8.742;2024-03-08T22:05:14;19.17;;;14.00;;
4595;SDS011;2310;49.978;8.742;2024-03-08T22:09:24;22.83;;;15.00;;
4595;SDS011;2310;49.978;8.742;2024-03-08T22:13:25;21.63;;;15.40;;
4595;SDS011;2310;49.978;8.742;2024-03-08T22:17:27;18.60;;;14.10;;
4595;SDS011;2310;49.978;8.742;2024-03-08T22:21:31;22.07;;;14.37;;
4595;SDS011;2310;49.978;8.742;2024-03-08T22:25:34;21.67;;;15.30;;
4595;SDS011;2310;49.978;8.742;2024-03-08T22:29:37;19.30;;;14.10;;
4595;SDS011;2310;49.978;8.742;2024-03-08T22:33:38;18.87;;;14.90;;
4595;SDS011;2310;49.978;8.742;2024-03-08T22:37:41;21.70;;;15.03;;
4595;SDS011;2310;49.978;8.742;2024-03-08T22:41:43;18.07;;;13.63;;
4595;SDS011;2310;49.978;8.742;2024-03-08T22:45:44;19.30;;;15.43;;
4595;SDS011;2310;49.978;8.742;2024-03-08T22:49:48;19.80;;;15.37;;
4595;SDS011;2310;49.978;8.742;2024-03-08T22:53:50;19.83;;;14.70;;
4595;SDS011;2310;49.978;8.742;2024-03-08T22:57:51;17.20;;;14.07;;
4595;SDS011;2310;49.978;8.742;2024-03-08T23:01:53;22.60;;;15.30;;
4595;SDS011;2310;49.978;8.742;2024-03-08T23:05:54;19.47;;;16.83;;
4595;SDS011;2310;49.978;8.742;2024-03-08T23:09:58;22.30;;;16.10;;
4595;SDS011;2310;49.978;8.742;2024-03-08T23:13:59;19.57;;;15.73;;
4595;SDS011;2310;49.978;8.742;2024-03-08T23:18:01;18.17;;;14.20;;
4595;SDS011;2310;49.978;8.742;2024-03-08T23:22:05;23.50;;;17.00;;
4595;SDS011;2310;49.978;8.742;2024-03-08T23:26:09;20.77;;;16.23;;
4595;SDS011;2310;49.978;8.742;2024-03-08T23:30:11;27.93;;;20.43;;
4595;SDS011;2310;49.978;8.742;2024-03-08T23:34:13;24.27;;;19.53;;
4595;SDS011;2310;49.978;8.742;2024-03-08T23:38:14;25.93;;;20.23;;
4595;SDS011;2310;49.978;8.742;2024-03-08T23:42:16;20.23;;;14.20;;
4595;SDS011;2310;49.978;8.742;2024-03-08T23:46:18;20.57;;;14.27;;
4595;SDS011;2310;49.978;8.742;2024-03-08T23:50:20;21.90;;;15.27;;
4595;SDS011;2310;49.978;8.742;2024-03-08T23:54:27;23.07;;;15.60;;
4595;SDS011;2310;49.978;8.742;2024-03-08T23:58:28;22.37;;;16.43;;
